Time;durP1;ratioP1;P1;durP2;ratioP2;P2;SDS_P1;SDS_P2;PMS_P1;PMS_P2;Temp;Humidity;BMP_temperature;BMP_pressure;BME280_temperature;BME280_humidity;BME280_pressure;Samples;Min_cycle;Max_cycle;Signal;HPM_P1;HPM_P2
2022/11/09 00:01:20;;;;;;;10.10;7.38;;;;;;;16.75;48.10;93234.72;5054653;28;20032;-86
2022/11/09 00:03:45;;;;;;;8.32;7.03;;;;;;;16.74;48.44;93233.25;5040441;28;20498;-87
2022/11/09 00:06:11;;;;;;;9.82;6.93;;;;;;;16.74;48.34;93230.53;5074812;28;20489;-86
2022/11/09 00:08:37;;;;;;;9.57;6.90;;;;;;;16.75;48.35;93237.47;5078202;27;20049;-86
2022/11/09 00:11:04;;;;;;;8.77;6.68;;;;;;;16.80;47.86;93233.97;5111784;27;20154;-86
2022/11/09 00:13:29;;;;;;;7.97;6.53;;;;;;;16.74;48.10;93223.06;5095499;27;20042;-87
2022/11/09 00:15:57;;;;;;;9.95;6.97;;;;;;;16.76;48.17;93226.03;5090180;27;20047;-87
2022/11/09 00:18:23;;;;;;;8.68;6.57;;;;;;;16.75;48.16;93221.09;5066758;28;20040;-86
2022/11/09 00:20:48;;;;;;;8.88;6.95;;;;;;;16.76;47.75;93225.31;5077979;28;20085;-85
2022/11/09 00:23:15;;;;;;;8.50;6.63;;;;;;;16.74;48.09;93227.78;5094426;27;20034;-88
2022/11/09 00:25:40;;;;;;;9.15;7.07;;;;;;;16.75;47.82;93227.28;5095451;27;20035;-86
2022/11/09 00:28:05;;;;;;;7.45;6.40;;;;;;;16.72;48.31;93230.28;5071525;27;20229;-87
2022/11/09 00:30:31;;;;;;;8.27;6.43;;;;;;;16.74;48.03;93223.06;5087061;28;20567;-85
2022/11/09 00:32:56;;;;;;;7.57;6.10;;;;;;;16.74;48.38;93230.53;5072530;28;20040;-86
2022/11/09 00:35:21;;;;;;;8.45;6.55;;;;;;;16.75;48.00;93221.09;5074111;28;20043;-86
2022/11/09 00:37:47;;;;;;;11.10;7.10;;;;;;;16.72;48.04;93222.84;5108385;28;20035;-87
2022/11/09 00:40:12;;;;;;;8.57;6.53;;;;;;;16.75;47.94;93221.81;5053774;28;20513;-87
2022/11/09 00:42:38;;;;;;;9.40;5.85;;;;;;;16.72;48.17;93220.09;5055045;28;20036;-87
2022/11/09 00:45:03;;;;;;;8.85;6.28;;;;;;;16.73;47.90;93229.78;5070342;28;20410;-86
2022/11/09 00:47:29;;;;;;;8.75;5.97;;;;;;;16.74;48.35;93223.06;5071132;28;20036;-85
2022/11/09 00:49:54;;;;;;;7.88;6.05;;;;;;;16.77;48.34;93237.69;5054827;28;20487;-86
2022/11/09 00:52:20;;;;;;;7.32;6.07;;;;;;;16.71;48.29;93224.06;5053033;28;20040;-86
2022/11/09 00:54:45;;;;;;;8.77;6.22;;;;;;;16.72;47.85;93238.47;5071161;28;20028;-86
2022/11/09 00:57:12;;;;;;;7.65;5.95;;;;;;;16.73;48.03;93234.50;5053476;28;20414;-85
2022/11/09 00:59:37;;;;;;;7.10;5.35;;;;;;;16.73;48.21;93232.50;5086264;28;20099;-86
2022/11/09 01:02:03;;;;;;;8.77;6.30;;;;;;;16.74;48.46;93241.44;5068970;28;20510;-86
2022/11/09 01:04:28;;;;;;;8.82;5.55;;;;;;;16.73;47.98;93235.22;5050432;28;20453;-86
2022/11/09 01:06:54;;;;;;;7.50;5.65;;;;;;;16.71;48.44;93236.97;5067402;28;20032;-87
2022/11/09 01:09:19;;;;;;;6.65;5.18;;;;;;;16.72;48.02;93236.47;5060635;28;20464;-85
2022/11/09 01:11:44;;;;;;;8.52;5.55;;;;;;;16.75;48.08;93232.00;5070758;28;20333;-87
2022/11/09 01:14:10;;;;;;;6.15;5.32;;;;;;;16.74;47.97;93234.00;5078202;28;20063;-86
2022/11/09 01:16:36;;;;;;;7.38;5.45;;;;;;;16.72;48.30;93225.56;5055245;28;20032;-86
2022/11/09 01:19:01;;;;;;;6.65;5.32;;;;;;;16.74;48.01;93223.06;5078916;28;20380;-86
2022/11/09 01:21:27;;;;;;;6.95;5.90;;;;;;;16.74;47.85;93216.88;5033174;28;20094;-85
2022/11/09 01:23:52;;;;;;;5.32;4.75;;;;;;;16.73;48.10;93220.84;5062991;28;20406;-87
2022/11/09 01:26:18;;;;;;;6.93;5.15;;;;;;;16.71;48.15;93218.63;5073414;28;20101;-87
2022/11/09 01:28:43;;;;;;;5.97;5.35;;;;;;;16.75;48.02;93218.34;5079692;28;20456;-86
2022/11/09 01:31:13;;;;;;;5.45;4.82;;;;;;;16.73;48.12;93229.03;5049657;28;20056;-87
2022/11/09 01:33:38;;;;;;;5.80;5.07;;;;;;;16.70;48.34;93224.56;5050851;28;20393;-87
2022/11/09 01:36:10;;;;;;;7.18;5.47;;;;;;;16.70;48.24;93222.59;5048743;28;20029;-87
2022/11/09 01:38:36;;;;;;;6.78;5.38;;;;;;;16.70;47.93;93224.56;5056323;28;20490;-86
2022/11/09 01:41:02;;;;;;;6.32;4.82;;;;;;;16.68;48.09;93216.91;5092297;28;20021;-86
2022/11/09 01:43:27;;;;;;;5.95;4.70;;;;;;;16.70;48.08;93208.94;5033085;28;20036;-85
2022/11/09 01:46:01;;;;;;;7.07;5.25;;;;;;;16.71;48.02;93210.44;5067070;28;20041;-87
2022/11/09 01:48:46;;;;;;;7.45;5.15;;;;;;;16.68;47.88;93214.16;5049580;28;20035;-86
2022/11/09 01:51:16;;;;;;;6.55;5.03;;;;;;;16.71;48.44;93204.22;5066107;28;20036;-87
2022/11/09 01:53:42;;;;;;;6.10;4.65;;;;;;;16.67;48.39;93211.97;5072065;28;20028;-85
2022/11/09 01:56:10;;;;;;;6.38;4.53;;;;;;;16.68;47.91;93214.16;5090000;28;20086;-86
2022/11/09 01:58:42;;;;;;;5.68;4.55;;;;;;;16.68;48.06;93210.69;5066534;28;20434;-86
2022/11/09 02:01:10;;;;;;;6.03;4.70;;;;;;;16.67;47.82;93209.94;5088711;28;20027;-86
2022/11/09 02:03:39;;;;;;;6.47;4.47;;;;;;;16.72;48.31;93208.44;5090187;28;20405;-87
2022/11/09 02:06:05;;;;;;;6.10;4.55;;;;;;;16.72;47.89;93202.97;5077790;28;20126;-86
2022/11/09 02:08:31;;;;;;;5.82;4.82;;;;;;;16.70;47.97;93210.94;5053361;28;20495;-85
2022/11/09 02:11:10;;;;;;;5.68;4.57;;;;;;;16.70;48.08;93200.00;5089733;28;20042;-86
2022/11/09 02:13:41;;;;;;;5.15;4.30;;;;;;;16.69;47.86;93201.25;5089417;28;20040;-87
2022/11/09 02:16:07;;;;;;;4.78;4.07;;;;;;;16.68;48.28;93194.31;5106614;28;20035;-86
2022/11/09 02:18:33;;;;;;;6.53;4.40;;;;;;;16.66;48.09;93197.56;5075274;28;20044;-86
2022/11/09 02:20:58;;;;;;;6.15;4.25;;;;;;;16.66;48.44;93191.38;5101337;28;20084;-86
2022/11/09 02:23:24;;;;;;;6.38;4.53;;;;;;;16.66;48.03;93186.66;5105781;28;20044;-86
2022/11/09 02:25:58;;;;;;;5.15;3.90;;;;;;;16.69;48.09;93193.06;5106507;28;20084;-85
2022/11/09 02:28:26;;;;;;;5.00;4.15;;;;;;;16.65;47.90;93181.69;5096604;28;20478;-86
2022/11/09 02:30:53;;;;;;;5.63;4.38;;;;;;;16.65;47.97;93182.44;5048300;28;20036;-86
2022/11/09 02:33:18;;;;;;;5.80;4.25;;;;;;;16.65;47.80;93185.19;5051874;28;20457;-87
2022/11/09 02:35:44;;;;;;;5.50;4.20;;;;;;;16.66;47.84;93177.72;5069330;28;20032;-86
2022/11/09 02:38:10;;;;;;;5.93;4.18;;;;;;;16.66;48.27;93183.94;5052250;28;20387;-87
2022/11/09 02:40:37;;;;;;;4.60;3.88;;;;;;;16.67;48.36;93173.75;5043885;28;20041;-88
2022/11/09 02:43:02;;;;;;;6.45;4.20;;;;;;;16.66;47.92;93177.72;5032727;28;20036;-86
2022/11/09 02:45:28;;;;;;;6.65;4.30;;;;;;;16.64;48.07;93183.69;5044634;28;20094;-86
2022/11/09 02:47:53;;;;;;;5.10;4.07;;;;;;;16.65;48.15;93174.25;5052906;28;20020;-86
2022/11/09 02:50:19;;;;;;;5.13;4.32;;;;;;;16.67;47.86;93185.38;5042886;28;20040;-87
2022/11/09 02:52:44;;;;;;;6.32;4.32;;;;;;;16.69;47.70;93187.63;5053822;28;20060;-86
2022/11/09 02:55:11;;;;;;;5.05;4.28;;;;;;;16.64;48.34;93182.94;5044370;28;20048;-85
2022/11/09 02:57:36;;;;;;;4.22;3.50;;;;;;;16.64;48.05;93177.50;5051548;28;20032;-87
2022/11/09 03:00:02;;;;;;;5.47;4.38;;;;;;;16.65;48.21;93176.25;5043830;28;20036;-85
2022/11/09 03:02:27;;;;;;;4.32;3.67;;;;;;;16.66;48.43;93177.72;5055820;28;20541;-85
2022/11/09 03:04:53;;;;;;;4.78;3.55;;;;;;;16.65;48.43;93181.69;5061549;28;20044;-87
2022/11/09 03:07:18;;;;;;;5.68;4.00;;;;;;;16.65;47.99;93177.00;5055580;28;20036;-86
2022/11/09 03:09:45;;;;;;;4.90;3.55;;;;;;;16.66;48.13;93175.75;5049290;28;20391;-86
2022/11/09 03:12:28;;;;;;;5.38;3.90;;;;;;;16.64;48.54;93170.03;5068103;28;20043;-86
2022/11/09 03:15:02;;;;;;;4.45;3.47;;;;;;;16.65;48.01;93170.78;5058599;28;20043;-86
2022/11/09 03:17:27;;;;;;;5.18;3.67;;;;;;;16.70;48.07;93180.91;5052015;28;20621;-87
2022/11/09 03:19:53;;;;;;;4.30;3.53;;;;;;;16.64;47.90;93172.03;5027951;28;20040;-86
2022/11/09 03:22:18;;;;;;;4.25;3.70;;;;;;;16.64;47.88;93174.75;5052300;28;20068;-86
2022/11/09 03:24:44;;;;;;;4.85;3.13;;;;;;;16.64;48.37;93172.03;5056491;28;20047;-87
2022/11/09 03:27:09;;;;;;;4.03;3.38;;;;;;;16.63;48.32;93184.94;5072216;28;20044;-86
2022/11/09 03:29:34;;;;;;;5.00;3.55;;;;;;;16.63;48.42;93186.91;5058869;28;20037;-86
2022/11/09 03:32:00;;;;;;;4.82;3.40;;;;;;;16.66;48.33;93185.91;5055709;28;20093;-86
2022/11/09 03:34:25;;;;;;;4.47;3.72;;;;;;;16.61;48.16;93187.41;5052326;28;20097;-87
2022/11/09 03:36:51;;;;;;;5.50;3.80;;;;;;;16.65;48.19;93184.44;5052533;28;20486;-86
2022/11/09 03:39:16;;;;;;;4.97;3.55;;;;;;;16.64;48.28;93180.22;5070358;28;20372;-86
2022/11/09 03:41:41;;;;;;;4.10;3.30;;;;;;;16.63;48.02;93189.63;5083073;28;20403;-87
2022/11/09 03:44:07;;;;;;;4.35;3.50;;;;;;;16.64;48.17;93183.69;5069000;28;20036;-87
2022/11/09 03:46:32;;;;;;;4.82;3.35;;;;;;;16.63;48.10;93175.97;5072456;28;20036;-87
2022/11/09 03:48:58;;;;;;;4.32;3.28;;;;;;;16.65;47.95;93185.19;5072253;28;20024;-86
2022/11/09 03:51:23;;;;;;;4.50;3.22;;;;;;;16.63;48.14;93190.41;5053866;28;20104;-85
2022/11/09 03:53:49;;;;;;;3.50;2.78;;;;;;;16.61;47.99;93187.41;5042574;28;20024;-86
2022/11/09 03:56:14;;;;;;;3.83;3.13;;;;;;;16.62;48.33;93183.41;5049626;28;20045;-86
2022/11/09 03:58:40;;;;;;;4.18;3.30;;;;;;;16.62;47.87;93177.97;5067657;28;20032;-87
2022/11/09 04:01:06;;;;;;;4.47;3.25;;;;;;;16.60;48.34;93179.72;5067260;28;20565;-86
2022/11/09 04:03:32;;;;;;;4.25;3.30;;;;;;;16.61;48.08;93179.22;5072205;28;20054;-87
2022/11/09 04:05:58;;;;;;;3.60;2.85;;;;;;;16.62;48.08;93167.03;5071142;28;20513;-86
2022/11/09 04:08:23;;;;;;;4.30;3.33;;;;;;;16.59;47.77;93165.31;5051633;28;20035;-86
2022/11/09 04:10:48;;;;;;;4.25;2.90;;;;;;;16.60;48.03;93164.06;5048211;28;20043;-87
2022/11/09 04:13:14;;;;;;;3.60;3.05;;;;;;;16.62;48.11;93161.59;5058683;28;20090;-87
2022/11/09 04:15:39;;;;;;;3.40;2.80;;;;;;;16.63;48.28;93165.06;5063380;28;20032;-86
2022/11/09 04:18:05;;;;;;;4.50;3.40;;;;;;;16.59;48.16;93156.41;5087676;28;20413;-86
2022/11/09 04:20:31;;;;;;;4.03;3.03;;;;;;;16.62;48.26;93150.66;5051595;28;20074;-87
2022/11/09 04:22:59;;;;;;;4.65;3.15;;;;;;;16.61;47.98;93143.00;5060051;28;20422;-87
2022/11/09 04:25:24;;;;;;;3.63;3.03;;;;;;;16.58;48.07;93155.66;5087411;28;20089;-87
2022/11/09 04:27:55;;;;;;;3.78;3.08;;;;;;;16.62;47.97;93158.84;5071908;28;20032;-86
2022/11/09 04:30:21;;;;;;;;;;;;;;;16.64;48.10;93159.13;5060760;28;20043;-86
2022/11/09 04:32:46;;;;;;;4.43;3.13;;;;;;;16.60;48.09;93161.34;5051333;28;19921;-87
2022/11/09 04:35:11;;;;;;;3.58;2.83;;;;;;;16.60;48.02;93166.06;5068974;28;20430;-86
2022/11/09 04:37:37;;;;;;;3.55;2.80;;;;;;;16.60;48.26;93166.06;5034838;28;20036;-86
2022/11/09 04:40:02;;;;;;;2.97;2.40;;;;;;;16.58;48.08;93166.56;5054097;28;20036;-87
2022/11/09 04:42:28;;;;;;;3.75;2.70;;;;;;;16.60;48.17;93163.34;5059677;28;20024;-86
2022/11/09 04:44:53;;;;;;;4.13;2.63;;;;;;;16.62;48.38;93156.13;5022086;28;20044;-87
2022/11/09 04:47:18;;;;;;;3.30;2.70;;;;;;;16.60;48.23;93160.59;5054259;28;20418;-86
2022/11/09 04:49:44;;;;;;;3.78;2.50;;;;;;;16.62;48.32;93155.38;5054792;28;20029;-85
2022/11/09 04:52:09;;;;;;;4.80;3.30;;;;;;;16.60;48.30;93155.16;5037836;28;20025;-86
2022/11/09 04:54:35;;;;;;;4.75;2.85;;;;;;;16.59;48.27;93154.41;5054235;28;20036;-85
2022/11/09 04:57:00;;;;;;;3.55;2.92;;;;;;;16.62;48.30;93163.56;5071537;28;20036;-86
2022/11/09 04:59:25;;;;;;;3.97;2.50;;;;;;;16.63;48.09;93168.56;5037227;28;20036;-85
2022/11/09 05:01:51;;;;;;;3.92;3.05;;;;;;;16.63;48.33;93174.03;5036393;28;20063;-86
2022/11/09 05:04:17;;;;;;;3.65;2.83;;;;;;;16.64;48.20;93169.31;5046944;28;20036;-86
2022/11/09 05:06:42;;;;;;;4.85;2.40;;;;;;;16.63;47.90;93178.72;5062107;28;20062;-88
2022/11/09 05:09:08;;;;;;;5.82;2.90;;;;;;;16.59;47.79;93170.78;5068259;28;20556;-86
2022/11/09 05:11:34;;;;;;;5.30;2.70;;;;;;;16.54;46.19;93179.00;5054363;28;20391;-85
2022/11/09 05:13:59;;;;;;;6.97;2.97;;;;;;;16.46;44.99;93179.50;5054132;28;20675;-85
2022/11/09 05:16:25;;;;;;;6.57;2.97;;;;;;;16.40;43.95;93178.06;5033562;28;20052;-89
2022/11/09 05:18:50;;;;;;;12.60;2.78;;;;;;;16.39;43.30;93176.59;5056338;28;20040;-86
2022/11/09 05:21:17;;;;;;;6.10;2.70;;;;;;;16.38;42.89;93175.84;5062421;28;20036;-86
2022/11/09 05:23:57;;;;;;;4.30;2.60;;;;;;;16.39;43.15;93173.88;5047478;28;20032;-88
2022/11/09 05:26:24;;;;;;;5.70;3.22;;;;;;;16.41;43.32;93176.84;5053777;28;20056;-89
2022/11/09 05:28:51;;;;;;;4.60;2.58;;;;;;;16.43;44.18;93183.28;5057698;28;20044;-86
2022/11/09 05:31:16;;;;;;;84.13;54.58;;;;;;;16.48;44.61;93178.28;5037027;28;20047;-86
2022/11/09 05:33:42;;;;;;;215.77;139.80;;;;;;;16.48;46.32;93178.28;5051188;28;20043;-87
2022/11/09 05:36:08;;;;;;;34.30;23.25;;;;;;;16.53;46.57;93180.22;5037134;28;20044;-87
2022/11/09 05:38:34;;;;;;;43.70;22.77;;;;;;;16.59;46.46;93189.88;5038773;28;20437;-86
2022/11/09 05:41:00;;;;;;;45.85;25.20;;;;;;;16.60;46.65;93202.28;5049664;28;20194;-85
2022/11/09 05:43:25;;;;;;;95.85;61.25;;;;;;;16.64;46.58;93204.78;5049645;28;20581;-87
2022/11/09 05:45:51;;;;;;;22.23;9.50;;;;;;;16.65;46.74;93211.72;5038776;28;20580;-90
2022/11/09 05:48:16;;;;;;;14.38;8.23;;;;;;;16.63;46.63;93200.53;5070920;28;20035;-85
2022/11/09 05:50:42;;;;;;;16.25;9.10;;;;;;;16.63;46.02;93195.84;5032530;28;20059;-88
2022/11/09 05:53:07;;;;;;;13.25;8.65;;;;;;;16.67;46.60;93203.78;5050448;28;20118;-88
2022/11/09 05:55:33;;;;;;;16.95;8.75;;;;;;;16.65;46.39;93198.06;5024163;28;20399;-89
2022/11/09 05:57:58;;;;;;;20.05;8.25;;;;;;;16.62;46.02;93201.78;5034362;28;20032;-88
2022/11/09 06:00:24;;;;;;;28.38;10.68;;;;;;;16.62;46.35;93201.78;5051579;28;20122;-87
2022/11/09 06:02:49;;;;;;;24.35;9.93;;;;;;;16.62;46.02;93197.06;5036200;28;20126;-88
2022/11/09 06:05:15;;;;;;;19.73;9.27;;;;;;;16.63;46.18;93190.41;5056920;28;20397;-91
2022/11/09 06:07:41;;;;;;;17.50;8.73;;;;;;;16.57;45.66;93189.66;5045412;28;20528;-89
2022/11/09 06:10:07;;;;;;;34.05;11.63;;;;;;;16.58;45.85;93184.94;5041994;28;20039;-88
2022/11/09 06:12:32;;;;;;;29.98;11.32;;;;;;;16.56;46.03;93190.88;5040319;28;20044;-87
2022/11/09 06:14:58;;;;;;;28.73;11.10;;;;;;;16.57;45.61;93192.38;5052792;28;20036;-88
2022/11/09 06:17:23;;;;;;;14.27;10.15;;;;;;;16.57;46.12;93202.53;5058256;28;20071;-85
2022/11/09 06:19:49;;;;;;;22.63;10.90;;;;;;;16.60;45.86;93199.56;5067446;28;20085;-89
2022/11/09 06:22:15;;;;;;;26.95;15.15;;;;;;;16.62;46.11;93202.53;5051491;28;20044;-88
2022/11/09 06:24:41;;;;;;;32.15;16.70;;;;;;;16.63;46.14;93203.25;5033919;28;20045;-89
2022/11/09 06:27:07;;;;;;;40.80;19.92;;;;;;;16.63;46.17;93208.72;5033402;28;20051;-90
2022/11/09 06:29:32;;;;;;;46.28;21.58;;;;;;;16.57;45.87;93202.53;5034270;28;20044;-89
2022/11/09 06:31:58;;;;;;;49.33;22.15;;;;;;;16.62;45.91;93220.88;5031507;28;20055;-89
2022/11/09 06:34:23;;;;;;;44.70;22.27;;;;;;;16.59;45.36;93221.88;5049004;28;20764;-89
2022/11/09 06:36:49;;;;;;;68.20;26.67;;;;;;;16.59;44.71;93217.16;5058575;28;20044;-92
2022/11/09 06:39:14;;;;;;;44.58;20.35;;;;;;;16.53;43.88;93211.00;5059429;28;20594;-89
2022/11/09 06:41:39;;;;;;;44.92;19.98;;;;;;;16.49;43.49;93205.06;5028034;28;20439;-90
2022/11/09 06:44:05;;;;;;;42.45;21.08;;;;;;;16.52;43.66;93206.78;5035327;28;20032;-87
2022/11/09 06:46:31;;;;;;;50.35;24.83;;;;;;;16.51;43.21;93213.47;5052993;28;20086;-88
2022/11/09 06:48:57;;;;;;;78.65;35.13;;;;;;;16.57;43.70;93213.47;5046362;28;20071;-88
2022/11/09 06:51:22;;;;;;;75.75;40.05;;;;;;;16.57;43.57;93214.19;5032357;28;20102;-87
2022/11/09 06:53:48;;;;;;;154.02;89.07;;;;;;;16.62;44.97;93209.97;5047456;28;20043;-88
2022/11/09 06:56:13;;;;;;;88.25;48.70;;;;;;;16.59;44.18;93225.34;5022941;28;20051;-87
2022/11/09 06:58:39;;;;;;;116.97;63.10;;;;;;;16.60;44.63;93215.19;5054143;28;20036;-87
2022/11/09 07:01:10;;;;;;;129.90;76.88;;;;;;;16.63;44.53;93219.63;5075645;28;20040;-90
2022/11/09 07:03:36;;;;;;;142.13;79.25;;;;;;;16.71;45.26;93206.97;5048504;28;20043;-90
2022/11/09 07:06:05;;;;;;;133.50;75.80;;;;;;;16.70;46.35;93219.88;5027772;28;20033;-90
2022/11/09 07:08:31;;;;;;;141.75;81.85;;;;;;;16.75;46.39;93224.56;5039188;28;20115;-88
2022/11/09 07:11:08;;;;;;;122.95;78.22;;;;;;;16.78;45.81;93218.09;5061241;28;20040;-87
2022/11/09 07:13:33;;;;;;;121.07;74.43;;;;;;;16.79;45.73;93222.31;5053581;28;20479;-87
2022/11/09 07:16:00;;;;;;;117.43;73.82;;;;;;;16.86;45.70;93220.28;5013592;28;20132;-89
2022/11/09 07:18:27;;;;;;;126.72;75.53;;;;;;;16.83;45.59;93219.31;5031822;28;20052;-87
2022/11/09 07:20:53;;;;;;;104.53;70.07;;;;;;;16.92;45.60;93221.72;5068255;28;20036;-87
2022/11/09 07:23:19;;;;;;;113.93;71.25;;;;;;;16.92;45.18;93229.19;5024733;28;20051;-90
2022/11/09 07:25:45;;;;;;;102.07;62.25;;;;;;;16.92;45.32;93229.19;5068144;28;20059;-90
2022/11/09 07:28:11;;;;;;;102.35;62.60;;;;;;;16.92;45.36;93229.91;5029413;28;20126;-92
2022/11/09 07:30:37;;;;;;;84.57;58.70;;;;;;;16.91;45.81;93233.16;5050686;28;20078;-89
2022/11/09 07:33:09;;;;;;;88.88;55.22;;;;;;;16.90;45.29;93231.66;5023893;28;20052;-89
2022/11/09 07:35:35;;;;;;;91.50;58.58;;;;;;;16.90;45.60;93232.41;5024056;28;20037;-87
2022/11/09 07:38:02;;;;;;;85.75;57.00;;;;;;;16.92;45.39;93227.19;5043066;28;20047;-89
2022/11/09 07:40:28;;;;;;;76.65;52.05;;;;;;;16.89;45.71;93225.47;5049831;28;20039;-90
2022/11/09 07:42:59;;;;;;;89.32;55.78;;;;;;;16.89;45.88;93228.19;5056926;28;20051;-90
2022/11/09 07:45:25;;;;;;;96.10;58.10;;;;;;;16.91;45.80;93233.91;5040973;28;20145;-88
2022/11/09 07:47:55;;;;;;;121.18;68.07;;;;;;;16.91;45.77;93233.91;5036839;28;20036;-86
2022/11/09 07:50:21;;;;;;;116.00;71.20;;;;;;;16.91;45.78;93239.34;5048753;28;20040;-86
2022/11/09 07:52:47;;;;;;;139.80;75.30;;;;;;;16.93;45.33;93234.13;5060435;28;20063;-87
2022/11/09 07:55:13;;;;;;;211.27;107.28;;;;;;;16.95;45.51;93239.09;5046418;28;20044;-90
2022/11/09 07:57:40;;;;;;;218.43;104.38;;;;;;;16.93;45.99;93236.13;5050465;28;20035;-89
2022/11/09 08:00:06;;;;;;;270.27;123.20;;;;;;;16.93;45.40;93236.88;5051255;28;20039;-90
2022/11/09 08:02:32;;;;;;;284.45;128.20;;;;;;;16.91;45.75;93238.63;5034809;28;20077;-88
2022/11/09 08:04:58;;;;;;;233.30;116.13;;;;;;;16.95;45.68;93241.81;5050314;28;20044;-92
2022/11/09 08:07:25;;;;;;;220.23;111.60;;;;;;;16.95;45.92;93247.28;5033839;28;20044;-88
2022/11/09 08:09:51;;;;;;;212.90;109.32;;;;;;;16.95;46.21;93241.81;5053008;28;20036;-88
2022/11/09 08:12:17;;;;;;;214.77;108.75;;;;;;;16.96;45.63;93241.31;5049918;28;20040;-89
2022/11/09 08:14:46;;;;;;;216.35;109.22;;;;;;;16.95;45.78;93250.75;5063580;28;20051;-91
2022/11/09 08:17:15;;;;;;;226.70;114.72;;;;;;;16.98;45.75;93243.53;5039564;28;20571;-92
2022/11/09 08:19:51;;;;;;;166.82;82.28;;;;;;;16.94;45.59;93251.25;5047172;28;20045;-90
2022/11/09 08:22:27;;;;;;;118.55;51.05;;;;;;;16.88;44.65;93253.28;5015374;28;20045;-90
2022/11/09 08:24:53;;;;;;;120.78;61.33;;;;;;;16.87;44.45;93255.28;5054927;28;20044;-90
2022/11/09 08:27:22;;;;;;;121.90;55.80;;;;;;;16.90;45.13;93254.25;5038861;28;20081;-91
2022/11/09 08:29:48;;;;;;;132.35;61.20;;;;;;;16.89;45.01;93260.97;5049923;28;20040;-88
2022/11/09 08:32:14;;;;;;;120.00;57.33;;;;;;;16.90;44.73;93262.44;5061947;28;20090;-90
2022/11/09 08:34:41;;;;;;;114.60;62.53;;;;;;;16.91;45.27;93263.94;5050741;28;20043;-88
2022/11/09 08:37:07;;;;;;;136.07;68.78;;;;;;;16.92;45.09;93259.94;5048210;28;20771;-88
2022/11/09 08:39:33;;;;;;;155.35;74.00;;;;;;;16.92;45.27;93268.16;5085563;28;20048;-88
2022/11/09 08:42:02;;;;;;;154.65;73.45;;;;;;;16.93;45.51;93260.69;5073415;28;20610;-87
2022/11/09 08:44:29;;;;;;;163.70;72.22;;;;;;;16.94;46.03;93254.72;5048557;28;20048;-89
2022/11/09 08:46:56;;;;;;;163.70;84.03;;;;;;;16.97;45.73;93253.72;5058836;28;20032;-89
2022/11/09 08:49:25;;;;;;;172.70;85.80;;;;;;;16.94;45.85;93262.94;5044459;28;20087;-89
2022/11/09 08:51:54;;;;;;;167.10;86.90;;;;;;;16.99;45.93;93262.16;5054811;28;20509;-89
2022/11/09 08:54:21;;;;;;;197.45;94.30;;;;;;;16.98;46.01;93266.13;5047432;28;20101;-87
2022/11/09 08:56:48;;;;;;;182.82;91.82;;;;;;;16.98;45.94;93260.69;5064075;28;20032;-88
2022/11/09 08:59:14;;;;;;;190.05;92.93;;;;;;;17.00;46.20;93266.38;5066284;28;20040;-87
2022/11/09 09:01:39;;;;;;;171.23;87.72;;;;;;;17.00;45.68;93260.16;5044154;28;20430;-87
2022/11/09 09:04:05;;;;;;;165.32;84.03;;;;;;;17.02;45.70;93255.69;5052709;28;20152;-88
2022/11/09 09:06:31;;;;;;;153.88;77.22;;;;;;;17.00;45.86;93266.38;5070933;28;20036;-91
2022/11/09 09:09:00;;;;;;;113.35;54.15;;;;;;;16.95;45.42;93255.47;5053887;28;20038;-91
2022/11/09 09:11:32;;;;;;;66.95;32.97;;;;;;;16.85;45.08;93259.75;5058510;28;20704;-89
2022/11/09 09:13:58;;;;;;;100.05;38.63;;;;;;;16.84;44.79;93255.53;5068701;28;20048;-91
2022/11/09 09:16:24;;;;;;;63.63;28.13;;;;;;;16.76;44.81;93264.25;5065529;28;20062;-88
2022/11/09 09:18:49;;;;;;;67.82;25.45;;;;;;;16.77;45.41;93265.75;5081320;28;20057;-87
2022/11/09 09:21:15;;;;;;;58.75;23.27;;;;;;;16.81;45.23;93265.47;5065044;28;20132;-87
2022/11/09 09:23:40;;;;;;;46.28;16.30;;;;;;;16.77;46.07;93262.28;5069759;28;20044;-87
2022/11/09 09:26:06;;;;;;;241.07;38.22;;;;;;;16.71;46.62;93259.56;5049246;28;20040;-88
2022/11/09 09:28:31;;;;;;;151.43;31.70;;;;;;;16.70;46.40;93270.97;5055637;28;20047;-87
2022/11/09 09:31:00;;;;;;;191.48;38.92;;;;;;;16.68;46.07;93271.47;5031363;28;1124582;-87
2022/11/09 09:33:26;;;;;;;141.25;36.75;;;;;;;16.73;46.14;93276.19;5052020;28;20147;-87
2022/11/09 09:35:53;;;;;;;84.32;31.17;;;;;;;16.76;46.29;93283.38;5056161;28;20176;-88
2022/11/09 09:38:19;;;;;;;85.10;29.63;;;;;;;16.76;45.94;93280.63;5062078;28;20056;-89
2022/11/09 09:40:55;;;;;;;76.50;32.75;;;;;;;16.80;46.10;93288.56;5070916;28;20052;-89
2022/11/09 09:43:29;;;;;;;99.97;35.10;;;;;;;16.80;45.79;93294.03;5057649;28;20055;-91
2022/11/09 09:45:55;;;;;;;152.38;59.38;;;;;;;16.84;46.08;93294.50;5071332;28;20075;-89
2022/11/09 09:48:28;;;;;;;156.52;61.65;;;;;;;16.90;46.25;93294.47;5067695;28;20040;-89
2022/11/09 09:50:58;;;;;;;138.57;64.45;;;;;;;16.88;46.26;93296.97;5071591;28;20044;-88
2022/11/09 09:53:33;;;;;;;139.13;68.78;;;;;;;16.91;46.41;93298.69;5062428;28;20040;-88
2022/11/09 09:56:04;;;;;;;130.90;66.97;;;;;;;16.90;46.46;93295.22;5074621;28;20086;-87
2022/11/09 09:58:31;;;;;;;142.77;62.33;;;;;;;16.89;46.30;93303.94;5077798;28;20498;-87
2022/11/09 10:01:11;;;;;;;102.20;46.72;;;;;;;16.86;45.77;93297.47;5065590;28;20039;-86
2022/11/09 10:03:37;;;;;;;78.05;37.05;;;;;;;16.87;45.42;93298.22;5054454;28;20040;-85
2022/11/09 10:06:31;;;;;;;76.88;34.42;;;;;;;16.85;45.29;93296.00;5073684;28;20050;-86
2022/11/09 10:09:18;;;;;;;88.03;34.28;;;;;;;16.83;44.99;93286.81;5079387;28;20063;-84
2022/11/09 10:11:54;;;;;;;177.25;50.58;;;;;;;16.84;45.56;93291.03;5076812;28;20051;-84
2022/11/09 10:14:44;;;;;;;147.25;43.47;;;;;;;16.89;45.60;93296.44;5085892;28;20089;-83
2022/11/09 10:17:17;;;;;;;152.23;42.80;;;;;;;16.90;45.70;93294.47;5069311;28;20121;-85
2022/11/09 10:19:51;;;;;;;173.65;49.63;;;;;;;16.93;45.72;93290.72;5079060;28;20040;-85
2022/11/09 10:22:21;;;;;;;159.60;55.28;;;;;;;16.90;46.18;93295.22;5086977;28;20139;-85
2022/11/09 10:25:12;;;;;;;91.22;38.97;;;;;;;16.88;45.96;93289.53;5075018;28;20037;-86
2022/11/09 10:27:43;;;;;;;96.47;36.85;;;;;;;16.90;45.80;93295.22;5043991;28;20040;-86
2022/11/09 10:30:14;;;;;;;84.57;31.88;;;;;;;16.88;46.03;93302.44;5071046;28;20232;-85
2022/11/09 10:32:39;;;;;;;68.00;28.35;;;;;;;16.82;45.73;93304.44;5071329;28;20040;-86
2022/11/09 10:35:23;;;;;;;62.58;26.35;;;;;;;16.84;45.42;93323.81;5075390;28;20070;-87
2022/11/09 10:37:51;;;;;;;69.80;28.75;;;;;;;16.84;45.56;93321.81;5067803;28;20499;-86
2022/11/09 10:40:17;;;;;;;57.58;26.35;;;;;;;16.87;45.59;93331.00;5043371;28;20082;-86
2022/11/09 10:42:52;;;;;;;72.32;30.80;;;;;;;16.88;46.06;93333.22;5086398;28;20040;-86
2022/11/09 10:45:34;;;;;;;117.00;40.15;;;;;;;16.90;46.37;93329.97;5061648;28;20036;-85
2022/11/09 10:48:00;;;;;;;89.65;32.42;;;;;;;16.93;46.31;93331.69;5074595;28;20707;-85
2022/11/09 10:50:41;;;;;;;107.53;41.58;;;;;;;16.92;46.03;93335.66;5066234;28;20093;-85
2022/11/09 10:53:27;;;;;;;;;;;;;;;16.95;46.42;93329.19;5068330;28;20036;-85
2022/11/09 10:56:16;;;;;;;81.15;43.40;;;;;;;16.91;45.21;93331.44;5078158;28;19924;-85
2022/11/09 10:58:47;;;;;;;78.38;41.40;;;;;;;16.88;45.73;93324.28;5084925;28;20032;-85
2022/11/09 11:01:14;;;;;;;92.78;39.45;;;;;;;16.90;45.12;93327.97;5074571;28;20057;-85
2022/11/09 11:03:40;;;;;;;106.15;39.72;;;;;;;16.89;45.39;93315.56;5080222;28;20032;-89
2022/11/09 11:06:16;;;;;;;103.43;38.10;;;;;;;16.91;45.48;93325.97;5077811;28;20100;-86
2022/11/09 11:08:43;;;;;;;92.53;38.80;;;;;;;16.93;45.32;93320.75;5084881;28;20037;-87
2022/11/09 11:11:28;;;;;;;93.43;40.47;;;;;;;16.93;45.76;93316.03;5086041;28;20044;-87
2022/11/09 11:14:14;;;;;;;89.82;42.00;;;;;;;16.95;45.88;93310.09;5056780;28;20059;-87
2022/11/09 11:16:40;;;;;;;88.10;41.28;;;;;;;16.97;45.58;93313.06;5073691;28;20041;-87
2022/11/09 11:19:25;;;;;;;94.03;42.88;;;;;;;16.95;45.75;93299.16;5062442;28;20040;-88
2022/11/09 11:22:10;;;;;;;93.55;41.20;;;;;;;16.95;45.89;93291.72;5102724;28;20036;-85
2022/11/09 11:24:56;;;;;;;85.43;54.75;;;;;;;16.96;46.53;93300.66;5105383;28;20039;-86
2022/11/09 11:27:34;;;;;;;79.07;40.97;;;;;;;16.96;46.20;93295.94;5092481;28;20124;-86